Time;durP1;ratioP1;P1;durP2;ratioP2;P2;SDS_P1;SDS_P2;PMS_P1;PMS_P2;Temp;Humidity;BMP_temperature;BMP_pressure;BME280_temperature;BME280_humidity;BME280_pressure;Samples;Min_cycle;Max_cycle;Signal;HPM_P1;HPM_P2
2022/01/19 00:01:30;;;;;;;22.10;11.88;;;5.70;99.90;;;;;;5073818;28;20468;-62
2022/01/19 00:03:55;;;;;;;22.15;11.98;;;5.70;99.90;;;;;;5054972;28;20028;-62
2022/01/19 00:06:21;;;;;;;27.35;15.27;;;5.70;99.90;;;;;;5073703;28;20094;-62
2022/01/19 00:08:47;;;;;;;35.13;15.90;;;5.80;99.90;;;;;;5073535;28;20090;-62
2022/01/19 00:11:14;;;;;;;23.42;14.40;;;5.60;99.90;;;;;;5073615;28;20036;-62
2022/01/19 00:13:45;;;;;;;23.98;12.80;;;5.60;99.90;;;;;;5073465;28;20078;-61
2022/01/19 00:16:10;;;;;;;26.05;13.15;;;5.70;99.90;;;;;;5077833;28;20031;-62
2022/01/19 00:18:36;;;;;;;22.98;12.23;;;5.70;99.90;;;;;;5093650;28;20388;-61
2022/01/19 00:21:02;;;;;;;22.50;12.32;;;5.70;99.90;;;;;;5093810;28;20022;-62
2022/01/19 00:23:27;;;;;;;22.80;11.65;;;5.70;99.90;;;;;;5075630;28;20430;-62
2022/01/19 00:25:55;;;;;;;26.83;12.20;;;5.70;99.90;;;;;;5075314;28;20044;-62
2022/01/19 00:28:20;;;;;;;28.15;13.60;;;5.70;99.90;;;;;;5093450;28;20024;-61
2022/01/19 00:30:46;;;;;;;23.75;13.55;;;5.60;99.90;;;;;;5093582;28;20035;-62
2022/01/19 00:33:13;;;;;;;24.13;11.60;;;5.60;99.90;;;;;;5075365;28;20498;-62
2022/01/19 00:35:39;;;;;;;23.75;11.95;;;5.50;99.90;;;;;;5075706;28;20032;-61
2022/01/19 00:38:07;;;;;;;19.08;11.40;;;5.50;99.90;;;;;;5093366;28;20383;-62
2022/01/19 00:40:34;;;;;;;20.75;12.07;;;5.40;99.90;;;;;;5093497;28;20111;-62
2022/01/19 00:42:59;;;;;;;21.13;11.30;;;5.40;99.90;;;;;;5093126;28;20020;-62
2022/01/19 00:45:25;;;;;;;23.75;12.55;;;5.40;99.90;;;;;;5075089;28;20031;-62
2022/01/19 00:47:51;;;;;;;23.25;12.25;;;5.40;99.90;;;;;;5093155;28;20035;-61
2022/01/19 00:50:21;;;;;;;18.63;10.65;;;5.30;99.90;;;;;;5093325;28;20041;-62
2022/01/19 00:52:47;;;;;;;;;;;5.30;99.90;;;;;;5093588;28;20390;-62
2022/01/19 00:55:13;;;;;;;18.20;10.35;;;5.20;99.90;;;;;;5093195;28;19908;-62
2022/01/19 00:57:40;;;;;;;17.20;10.20;;;5.10;99.90;;;;;;5092830;28;20023;-62
2022/01/19 01:00:09;;;;;;;18.88;9.65;;;5.10;99.90;;;;;;5093072;28;20031;-61
2022/01/19 01:02:35;;;;;;;14.63;9.60;;;5.10;99.90;;;;;;5093331;28;20146;-62
2022/01/19 01:05:01;;;;;;;17.98;10.43;;;5.10;99.90;;;;;;5093024;28;20484;-61
2022/01/19 01:07:27;;;;;;;15.73;10.02;;;5.20;99.90;;;;;;5093049;28;20024;-61
2022/01/19 01:09:53;;;;;;;14.98;9.52;;;5.10;99.90;;;;;;5074562;28;20380;-61
2022/01/19 01:12:29;;;;;;;14.10;8.55;;;5.10;99.90;;;;;;5056074;28;20480;-61
2022/01/19 01:20:23;;;;;;;13.40;7.30;;;5.00;99.90;;;;;;5072842;28;20450;-62
2022/01/19 01:22:49;;;;;;;11.70;7.82;;;4.90;99.90;;;;;;5073108;28;20103;-62
2022/01/19 01:25:15;;;;;;;11.65;7.38;;;4.90;99.90;;;;;;5072300;28;20500;-62
2022/01/19 01:27:40;;;;;;;13.32;7.50;;;4.80;99.90;;;;;;5072681;28;20040;-62
2022/01/19 01:30:07;;;;;;;13.15;7.35;;;4.80;99.90;;;;;;5072518;28;20373;-62
2022/01/19 01:32:33;;;;;;;13.80;8.38;;;4.80;99.90;;;;;;5072322;28;20036;-62
2022/01/19 01:34:59;;;;;;;19.42;11.65;;;4.80;99.90;;;;;;5072489;28;20032;-61
2022/01/19 01:37:24;;;;;;;21.23;12.27;;;4.70;99.90;;;;;;5072479;28;20036;-61
2022/01/19 01:39:50;;;;;;;17.88;9.95;;;4.70;99.90;;;;;;5072375;28;20105;-62
2022/01/19 01:42:19;;;;;;;18.98;9.88;;;4.70;99.90;;;;;;5072457;28;20025;-62
2022/01/19 01:44:48;;;;;;;18.73;9.50;;;4.70;99.90;;;;;;5072262;28;20048;-62
2022/01/19 01:47:16;;;;;;;19.80;10.07;;;4.70;99.90;;;;;;5072321;28;20025;-62
2022/01/19 01:53:25;;;;;;;21.42;10.73;;;4.60;99.90;;;;;;5072458;28;20028;-62
2022/01/19 01:55:17;;;;;;;21.23;11.20;;;4.70;99.90;;;;;;5072173;28;20035;-62
2022/01/19 01:57:43;;;;;;;21.83;11.53;;;4.70;99.90;;;;;;5071927;28;20487;-62
2022/01/19 02:00:11;;;;;;;21.95;11.88;;;4.70;99.90;;;;;;5072058;28;20334;-61
2022/01/19 02:02:39;;;;;;;21.95;12.05;;;4.70;99.90;;;;;;5072002;28;20054;-61
2022/01/19 02:05:09;;;;;;;33.50;17.95;;;4.70;99.90;;;;;;5072516;28;20031;-61
2022/01/19 02:10:15;;;;;;;46.58;23.80;;;4.70;99.90;;;;;;5071935;28;20029;-61
2022/01/19 02:23:44;;;;;;;46.75;23.23;;;4.30;99.90;;;;;;5052048;28;20095;-62
2022/01/19 02:26:16;;;;;;;49.03;23.67;;;4.30;99.90;;;;;;5055655;28;20059;-62
2022/01/19 02:29:00;;;;;;;51.65;23.27;;;4.20;99.90;;;;;;5074686;28;20024;-62
2022/01/19 02:42:29;;;;;;;42.85;22.25;;;4.10;99.90;;;;;;5075403;28;20063;-62
2022/01/19 02:49:51;;;;;;;51.60;23.13;;;4.10;99.90;;;;;;5075396;28;20060;-62
2022/01/19 02:52:18;;;;;;;46.63;24.08;;;4.20;99.90;;;;;;5075193;28;20025;-61
2022/01/19 02:54:44;;;;;;;56.47;27.58;;;4.10;99.90;;;;;;5075087;28;20039;-61
2022/01/19 02:57:12;;;;;;;52.85;25.33;;;4.10;99.90;;;;;;5074984;28;20056;-61
2022/01/19 03:08:41;;;;;;;47.33;24.98;;;3.80;99.90;;;;;;5075304;28;20491;-61
2022/01/19 03:10:33;;;;;;;54.10;26.08;;;3.60;99.90;;;;;;5074949;28;20035;-61
2022/01/19 03:12:58;;;;;;;53.47;24.45;;;3.60;99.90;;;;;;5074806;28;20502;-61
2022/01/19 03:15:25;;;;;;;52.75;23.85;;;3.50;99.90;;;;;;5074841;28;20111;-61
2022/01/19 03:17:50;;;;;;;46.72;24.48;;;3.40;99.90;;;;;;5074399;28;20078;-61
2022/01/19 03:20:16;;;;;;;47.67;24.20;;;3.40;99.90;;;;;;5074711;28;20032;-61
2022/01/19 03:23:01;;;;;;;49.03;24.05;;;3.40;99.90;;;;;;5056586;28;20034;-61
2022/01/19 03:25:27;;;;;;;35.15;20.13;;;3.40;99.90;;;;;;5074411;28;20036;-61
2022/01/19 03:27:52;;;;;;;34.75;17.75;;;3.40;99.90;;;;;;5056506;28;20396;-61
2022/01/19 03:30:20;;;;;;;26.52;14.70;;;3.40;99.90;;;;;;5074064;28;20063;-61
2022/01/19 03:32:46;;;;;;;29.00;14.90;;;3.50;99.90;;;;;;5073861;28;20127;-61
2022/01/19 03:35:13;;;;;;;40.33;20.52;;;3.60;99.90;;;;;;5074341;28;20108;-61
2022/01/19 03:37:39;;;;;;;46.97;23.30;;;3.50;99.90;;;;;;5074061;28;20119;-61
2022/01/19 03:40:07;;;;;;;49.33;23.85;;;3.50;99.90;;;;;;5074017;28;20028;-61
2022/01/19 03:42:33;;;;;;;43.75;21.40;;;3.50;99.90;;;;;;5074166;28;20021;-61
2022/01/19 03:44:59;;;;;;;34.08;18.38;;;3.40;99.90;;;;;;5074058;28;20033;-62
2022/01/19 03:47:28;;;;;;;39.40;20.30;;;3.40;99.90;;;;;;5074268;28;20376;-62
2022/01/19 03:49:53;;;;;;;38.95;20.45;;;3.40;99.90;;;;;;5074075;28;20115;-62
2022/01/19 03:52:19;;;;;;;42.85;20.95;;;3.30;99.90;;;;;;5074094;28;20025;-61
2022/01/19 03:54:45;;;;;;;36.38;18.65;;;3.30;99.90;;;;;;5073954;28;20030;-61
2022/01/19 03:57:11;;;;;;;33.92;17.38;;;3.30;99.90;;;;;;5056060;28;20166;-61
2022/01/19 03:59:37;;;;;;;34.38;15.77;;;3.20;99.90;;;;;;5073805;28;20078;-61
2022/01/19 04:02:04;;;;;;;28.23;15.85;;;3.20;99.90;;;;;;5073768;28;20024;-62
2022/01/19 04:04:40;;;;;;;26.45;14.50;;;3.20;99.90;;;;;;5055799;28;20021;-61
2022/01/19 04:07:24;;;;;;;35.00;18.80;;;3.30;99.90;;;;;;5073868;28;20020;-62
2022/01/19 04:09:50;;;;;;;33.35;15.93;;;3.20;99.90;;;;;;5073607;28;20028;-61
2022/01/19 04:12:30;;;;;;;32.03;15.75;;;3.20;99.90;;;;;;5073674;28;20383;-62
2022/01/19 04:14:55;;;;;;;34.97;17.15;;;3.20;99.90;;;;;;5073624;28;20127;-61
2022/01/19 04:17:21;;;;;;;35.65;18.33;;;3.20;99.90;;;;;;5073649;28;20107;-61
2022/01/19 04:19:48;;;;;;;32.97;18.52;;;3.10;99.90;;;;;;5073575;28;20099;-61
2022/01/19 04:22:18;;;;;;;39.65;17.65;;;3.10;99.90;;;;;;5073282;28;20020;-61
2022/01/19 04:24:44;;;;;;;;;;;3.00;99.90;;;;;;5073509;28;20025;-62
2022/01/19 04:29:48;;;;;;;25.70;13.18;;;3.00;99.90;;;;;;5073321;28;20479;-62
2022/01/19 04:33:21;;;;;;;31.35;16.00;;;3.00;99.90;;;;;;5073401;28;20048;-61
2022/01/19 04:35:13;;;;;;;34.97;17.05;;;3.00;99.90;;;;;;5055435;28;20516;-61
2022/01/19 04:48:59;;;;;;;32.88;18.35;;;2.50;99.90;;;;;;5073384;28;20040;-61
2022/01/19 05:05:06;;;;;;;29.25;16.27;;;2.30;99.90;;;;;;5072914;28;20031;-61
2022/01/19 05:08:11;;;;;;;31.38;15.80;;;2.30;99.90;;;;;;5072922;28;20025;-61
2022/01/19 05:13:29;;;;;;;22.23;12.52;;;2.40;99.90;;;;;;5072447;28;20060;-61
2022/01/19 05:15:55;;;;;;;19.98;10.82;;;2.50;99.90;;;;;;5072389;28;20024;-61
2022/01/19 05:18:21;;;;;;;33.78;16.15;;;2.50;99.90;;;;;;5072500;28;20028;-61
2022/01/19 05:20:47;;;;;;;30.63;18.08;;;2.50;99.90;;;;;;5072676;28;20078;-61
2022/01/19 05:23:14;;;;;;;33.47;18.27;;;2.50;99.90;;;;;;5072745;28;20017;-61
2022/01/19 05:25:40;;;;;;;37.38;19.80;;;2.50;99.90;;;;;;5072358;28;20040;-61
2022/01/19 05:28:05;;;;;;;34.00;18.90;;;2.40;99.90;;;;;;5072651;28;20465;-61
2022/01/19 05:30:31;;;;;;;39.58;19.55;;;2.40;99.90;;;;;;5075150;28;20016;-61
2022/01/19 05:32:56;;;;;;;34.10;20.35;;;2.40;99.90;;;;;;5092595;28;20028;-61
2022/01/19 05:35:22;;;;;;;40.35;21.45;;;2.30;99.90;;;;;;5092515;28;20020;-61
2022/01/19 05:37:47;;;;;;;39.10;21.50;;;2.30;99.90;;;;;;5074543;28;20388;-61
2022/01/19 05:40:14;;;;;;;42.72;21.63;;;2.20;99.90;;;;;;5092697;28;20028;-61
2022/01/19 05:42:40;;;;;;;37.28;21.55;;;2.10;99.90;;;;;;5092683;28;20020;-60
2022/01/19 05:45:06;;;;;;;39.60;21.73;;;2.10;99.90;;;;;;5074602;28;20024;-61
2022/01/19 05:47:32;;;;;;;42.67;20.75;;;2.00;99.90;;;;;;5092615;28;20130;-61
2022/01/19 05:49:58;;;;;;;40.42;21.10;;;2.00;99.90;;;;;;5092370;28;20106;-61
2022/01/19 05:52:23;;;;;;;38.30;21.92;;;1.90;99.90;;;;;;5073491;28;20507;-60
2022/01/19 05:54:49;;;;;;;43.50;23.83;;;2.00;99.90;;;;;;5072218;28;20037;-61
2022/01/19 05:57:14;;;;;;;39.97;22.50;;;1.90;99.90;;;;;;5072194;28;20036;-61
2022/01/19 05:59:40;;;;;;;43.60;22.58;;;2.00;99.90;;;;;;5072345;28;20500;-61
2022/01/19 06:02:06;;;;;;;45.00;25.15;;;2.00;99.90;;;;;;5073925;28;20032;-61
2022/01/19 06:04:32;;;;;;;46.28;24.83;;;2.00;99.90;;;;;;5075904;28;20028;-61
2022/01/19 06:06:57;;;;;;;47.55;26.13;;;2.10;99.90;;;;;;5075957;28;20033;-61
2022/01/19 06:12:06;;;;;;;53.80;29.33;;;2.10;99.90;;;;;;5076278;28;20024;-61
2022/01/19 06:14:33;;;;;;;50.92;27.45;;;2.10;99.90;;;;;;5075846;28;20052;-61
2022/01/19 06:16:59;;;;;;;53.70;28.90;;;2.20;99.90;;;;;;5066431;28;20076;-61
2022/01/19 06:19:25;;;;;;;62.00;29.95;;;2.20;99.90;;;;;;5057688;28;20053;-61
2022/01/19 06:21:51;;;;;;;61.90;30.52;;;2.20;99.90;;;;;;5054494;28;20066;-61
2022/01/19 06:24:17;;;;;;;58.58;30.83;;;2.20;99.90;;;;;;5059751;28;20025;-62
2022/01/19 06:26:42;;;;;;;59.40;30.48;;;2.30;99.90;;;;;;5060064;28;20048;-61
2022/01/19 06:29:08;;;;;;;66.97;33.88;;;2.30;99.90;;;;;;5062881;28;20025;-61
2022/01/19 06:31:33;;;;;;;63.60;30.63;;;2.30;99.90;;;;;;5064224;28;20031;-61
2022/01/19 06:33:59;;;;;;;61.50;31.65;;;2.30;99.90;;;;;;5065265;28;20028;-61
2022/01/19 06:36:24;;;;;;;58.67;28.67;;;2.30;99.90;;;;;;5067484;28;20037;-61
2022/01/19 06:38:50;;;;;;;65.10;31.08;;;2.40;99.90;;;;;;5068111;28;20017;-61
2022/01/19 06:41:17;;;;;;;61.00;29.50;;;2.40;99.90;;;;;;5072021;28;20028;-61
2022/01/19 06:43:42;;;;;;;60.03;31.58;;;2.40;99.90;;;;;;5044812;28;20031;-61
2022/01/19 06:46:08;;;;;;;58.95;31.00;;;2.40;99.90;;;;;;5061523;28;20029;-61
2022/01/19 06:48:35;;;;;;;59.85;30.95;;;2.40;99.90;;;;;;5059182;28;20036;-61
2022/01/19 06:51:00;;;;;;;56.92;28.90;;;2.40;99.90;;;;;;5056282;28;20381;-61
2022/01/19 06:53:26;;;;;;;59.67;29.05;;;2.40;99.90;;;;;;5067338;28;20488;-61
2022/01/19 06:55:57;;;;;;;59.33;31.27;;;2.50;99.90;;;;;;5065038;28;20081;-61
2022/01/19 06:58:24;;;;;;;63.88;31.90;;;2.50;99.90;;;;;;5068052;28;20024;-61
2022/01/19 07:00:49;;;;;;;67.57;31.80;;;2.50;99.90;;;;;;5062335;28;20103;-61
2022/01/19 07:03:15;;;;;;;57.42;29.40;;;2.50;99.90;;;;;;5065269;28;20112;-61
2022/01/19 07:05:41;;;;;;;57.47;29.40;;;2.50;99.90;;;;;;5062315;28;20021;-61
2022/01/19 07:08:06;;;;;;;54.75;29.23;;;2.50;99.90;;;;;;5044531;28;20477;-61
2022/01/19 07:10:32;;;;;;;50.20;27.27;;;2.50;99.90;;;;;;5068827;28;20033;-61
2022/01/19 07:12:59;;;;;;;56.55;28.17;;;2.50;99.90;;;;;;5071644;28;20021;-61
2022/01/19 07:15:25;;;;;;;53.78;26.95;;;2.60;99.90;;;;;;5056959;28;20032;-61
2022/01/19 07:17:50;;;;;;;60.28;29.10;;;2.60;99.90;;;;;;5064369;28;20067;-61
2022/01/19 07:20:16;;;;;;;54.80;28.88;;;2.60;99.90;;;;;;5061621;28;20185;-61
2022/01/19 07:22:42;;;;;;;52.22;28.40;;;2.60;99.90;;;;;;5059316;28;20089;-61
2022/01/19 07:25:08;;;;;;;55.45;27.88;;;2.60;99.90;;;;;;5057594;28;20049;-61
2022/01/19 07:27:34;;;;;;;56.58;29.10;;;2.60;99.90;;;;;;5056393;28;20446;-61
2022/01/19 07:30:04;;;;;;;51.97;27.70;;;2.60;99.90;;;;;;5061143;28;20576;-62
2022/01/19 07:32:36;;;;;;;54.10;27.50;;;2.60;99.90;;;;;;5058497;28;20444;-61
2022/01/19 07:35:29;;;;;;;;;;;;;;;;;;;;;
2022/01/19 07:37:55;;;;;;;55.50;26.23;;;2.70;99.90;;;;;;5063742;28;20029;-61
2022/01/19 07:40:48;;;;;;;50.92;26.10;;;2.60;99.90;;;;;;5062956;28;20030;-61
2022/01/19 07:43:14;;;;;;;50.70;25.67;;;2.70;99.90;;;;;;5056209;28;20028;-61
2022/01/19 07:45:59;;;;;;;49.00;25.05;;;2.70;99.90;;;;;;5059125;28;20025;-61
2022/01/19 07:48:28;;;;;;;48.80;27.05;;;2.80;99.90;;;;;;5056156;28;20035;-62
2022/01/19 07:51:11;;;;;;;52.45;26.90;;;2.80;99.90;;;;;;5055889;28;20028;-61
2022/01/19 07:53:37;;;;;;;44.15;25.30;;;2.80;99.90;;;;;;5064353;28;20051;-61
2022/01/19 07:56:03;;;;;;;45.30;25.15;;;2.80;99.90;;;;;;5065964;28;20028;-60
2022/01/19 07:58:29;;;;;;;44.70;25.02;;;2.80;99.90;;;;;;5062600;28;20499;-60
2022/01/19 08:00:55;;;;;;;44.67;25.48;;;2.80;99.90;;;;;;5063221;28;20064;-60
2022/01/19 08:03:20;;;;;;;45.17;26.65;;;2.80;99.90;;;;;;5059119;28;20081;-61
2022/01/19 08:05:46;;;;;;;48.60;25.95;;;2.80;99.90;;;;;;5063290;28;20056;-60
2022/01/19 08:08:21;;;;;;;41.08;24.80;;;2.80;99.90;;;;;;5048031;28;20032;-61
2022/01/19 08:11:05;;;;;;;48.50;26.75;;;2.90;99.90;;;;;;5057555;28;20020;-61
2022/01/19 08:13:31;;;;;;;46.95;25.63;;;2.90;99.90;;;;;;5057120;28;20031;-60
2022/01/19 08:15:56;;;;;;;44.78;26.50;;;2.90;99.90;;;;;;5054755;28;20389;-60
2022/01/19 08:18:32;;;;;;;46.30;26.98;;;2.90;99.90;;;;;;5054880;28;20119;-60
2022/01/19 08:20:58;;;;;;;42.20;24.67;;;2.90;99.90;;;;;;5054824;28;20549;-60
2022/01/19 08:23:24;;;;;;;48.58;26.35;;;2.90;99.90;;;;;;5062253;28;20020;-60
2022/01/19 08:25:49;;;;;;;48.17;25.70;;;2.90;99.90;;;;;;5041591;28;20081;-61
2022/01/19 08:28:15;;;;;;;45.50;26.92;;;2.90;99.90;;;;;;5060936;28;20067;-61
2022/01/19 08:30:41;;;;;;;44.75;27.00;;;2.90;99.90;;;;;;5057175;28;20413;-60
2022/01/19 08:33:06;;;;;;;44.97;25.35;;;3.00;99.90;;;;;;5062957;28;20028;-60
2022/01/19 08:35:32;;;;;;;45.30;25.02;;;3.00;99.90;;;;;;5057170;28;20029;-61
2022/01/19 08:37:58;;;;;;;44.70;25.40;;;3.00;99.90;;;;;;5060826;28;20439;-61
2022/01/19 08:40:28;;;;;;;42.72;23.83;;;3.00;99.90;;;;;;5064052;28;20025;-60
2022/01/19 08:42:53;;;;;;;;;;;3.10;99.90;;;;;;5072215;28;20024;-61
2022/01/19 08:45:19;;;;;;;42.75;24.58;;;3.00;99.90;;;;;;5071992;28;19905;-61
2022/01/19 08:47:46;;;;;;;45.22;25.92;;;3.00;99.90;;;;;;5068480;28;20480;-61
2022/01/19 08:50:14;;;;;;;39.17;24.23;;;3.10;99.90;;;;;;5064812;28;20083;-61
2022/01/19 08:52:39;;;;;;;39.72;23.77;;;3.10;99.90;;;;;;5071585;28;20031;-61
2022/01/19 08:55:06;;;;;;;41.75;24.83;;;3.10;99.90;;;;;;5072219;28;20040;-61
2022/01/19 08:57:31;;;;;;;43.13;25.90;;;3.10;99.90;;;;;;5063154;28;20043;-61
2022/01/19 09:00:26;;;;;;;40.58;24.40;;;3.10;99.90;;;;;;5072244;28;20025;-61
2022/01/19 09:02:51;;;;;;;41.35;23.52;;;3.20;99.90;;;;;;5071436;28;20122;-61
2022/01/19 09:05:17;;;;;;;43.03;24.85;;;3.20;99.90;;;;;;5071635;28;20032;-61
2022/01/19 09:07:43;;;;;;;40.90;24.25;;;3.20;99.90;;;;;;5071581;28;20020;-61
2022/01/19 09:10:21;;;;;;;39.90;23.77;;;3.20;99.90;;;;;;5071381;28;20036;-61
2022/01/19 09:12:46;;;;;;;39.83;24.70;;;3.30;99.90;;;;;;5072217;28;20095;-62
2022/01/19 09:15:12;;;;;;;44.70;26.02;;;3.30;99.90;;;;;;5071912;28;20028;-61
2022/01/19 09:17:39;;;;;;;39.10;22.25;;;3.30;99.90;;;;;;5072084;28;20372;-61
2022/01/19 09:20:22;;;;;;;39.88;23.92;;;3.30;99.90;;;;;;5049696;28;20025;-61
2022/01/19 09:22:49;;;;;;;37.60;23.63;;;3.30;99.90;;;;;;5056677;28;20025;-61
2022/01/19 09:25:24;;;;;;;39.50;23.48;;;3.30;99.90;;;;;;5069320;28;20041;-61
2022/01/19 09:27:50;;;;;;;39.47;22.67;;;3.30;99.90;;;;;;5072029;28;20024;-61
2022/01/19 09:30:18;;;;;;;37.22;23.17;;;3.40;99.90;;;;;;5075943;28;20038;-61
2022/01/19 09:32:54;;;;;;;36.17;22.58;;;3.40;99.90;;;;;;5076364;28;20028;-61
2022/01/19 09:35:24;;;;;;;38.80;23.63;;;3.40;99.90;;;;;;5072114;28;20025;-61
2022/01/19 09:37:55;;;;;;;35.55;21.67;;;3.40;99.90;;;;;;5075484;28;20028;-61
2022/01/19 09:40:21;;;;;;;38.80;24.15;;;3.40;99.90;;;;;;5075627;28;20048;-61
2022/01/19 09:42:47;;;;;;;40.30;23.17;;;3.40;99.90;;;;;;5076060;28;20048;-61
2022/01/19 09:45:13;;;;;;;36.17;22.83;;;3.50;99.90;;;;;;5075272;28;20050;-60
2022/01/19 09:47:39;;;;;;;36.95;23.17;;;3.50;99.90;;;;;;5075926;28;20099;-61
2022/01/19 09:50:05;;;;;;;34.45;23.00;;;3.50;99.90;;;;;;5075737;28;20104;-60
2022/01/19 09:52:31;;;;;;;36.63;23.10;;;3.50;99.90;;;;;;5075531;28;20060;-61
2022/01/19 09:55:00;;;;;;;43.40;23.88;;;3.50;99.90;;;;;;5075700;28;20032;-61
2022/01/19 09:57:25;;;;;;;34.25;23.00;;;3.50;99.90;;;;;;5057491;28;20028;-61
2022/01/19 09:59:51;;;;;;;37.58;22.92;;;3.50;99.90;;;;;;5075148;28;20016;-61
2022/01/19 10:02:16;;;;;;;39.10;24.58;;;3.50;99.90;;;;;;5075148;28;20031;-61
2022/01/19 10:04:45;;;;;;;38.28;23.30;;;3.60;99.90;;;;;;5075441;28;20028;-61
2022/01/19 10:07:18;;;;;;;41.53;24.60;;;3.60;99.90;;;;;;5075313;28;20028;-61
2022/01/19 10:09:53;;;;;;;33.78;22.55;;;3.60;99.90;;;;;;5075235;28;20120;-61
2022/01/19 10:18:19;;;;;;;38.13;23.35;;;3.70;99.90;;;;;;5075247;28;20035;-61
2022/01/19 10:20:47;;;;;;;40.75;23.33;;;3.70;99.90;;;;;;5075482;28;20112;-61
2022/01/19 10:23:36;;;;;;;37.67;23.58;;;3.70;99.90;;;;;;5075534;28;20029;-61
2022/01/19 10:26:03;;;;;;;36.08;20.63;;;3.70;99.90;;;;;;5075366;28;20048;-60
2022/01/19 10:28:31;;;;;;;34.00;22.60;;;3.80;99.90;;;;;;5075502;28;20443;-61
2022/01/19 10:31:15;;;;;;;;;;;;;;;;;;;;;
2022/01/19 10:33:41;;;;;;;39.55;24.50;;;3.80;99.90;;;;;;5074622;28;20027;-61
2022/01/19 10:36:07;;;;;;;40.58;23.60;;;3.80;99.90;;;;;;5070243;28;20092;-61
2022/01/19 10:38:33;;;;;;;39.22;23.80;;;3.90;99.90;;;;;;5055259;28;20035;-61
2022/01/19 10:41:04;;;;;;;39.03;23.13;;;3.90;99.90;;;;;;5055324;28;20072;-60
2022/01/19 10:43:50;;;;;;;38.10;24.33;;;3.90;99.90;;;;;;5055233;28;20036;-60
2022/01/19 10:46:15;;;;;;;37.17;22.27;;;4.00;99.90;;;;;;5059824;28;20086;-61
2022/01/19 10:48:42;;;;;;;39.88;22.25;;;4.00;99.90;;;;;;5073200;28;20033;-61
2022/01/19 10:51:16;;;;;;;35.95;22.33;;;4.00;99.90;;;;;;5075029;28;20492;-61
2022/01/19 10:53:45;;;;;;;38.53;23.05;;;4.10;99.90;;;;;;5075169;28;20029;-61
2022/01/19 10:56:24;;;;;;;38.50;22.97;;;4.10;99.90;;;;;;5075027;28;20090;-61
2022/01/19 10:58:57;;;;;;;37.08;23.30;;;4.10;99.90;;;;;;5075031;28;20028;-61
2022/01/19 11:02:02;;;;;;;39.45;24.23;;;4.20;99.90;;;;;;5075142;28;20030;-61
2022/01/19 11:04:37;;;;;;;40.05;23.33;;;4.20;99.90;;;;;;4992801;28;20062;-60
2022/01/19 11:07:11;;;;;;;40.38;24.30;;;4.20;99.90;;;;;;4993399;28;20030;-61
2022/01/19 11:10:09;;;;;;;36.90;23.77;;;4.20;99.90;;;;;;5029709;28;20048;-61
2022/01/19 11:13:12;;;;;;;;;;;;;;;;;;;;;
2022/01/19 11:15:38;;;;;;;36.97;23.35;;;4.30;99.90;;;;;;5053471;28;20036;-61
2022/01/19 11:18:25;;;;;;;;;;;;;;;;;;;;;
2022/01/19 11:20:53;;;;;;;34.53;22.20;;;4.30;99.90;;;;;;5068845;28;20381;-61
2022/01/19 11:23:37;;;;;;;35.90;22.25;;;4.30;99.90;;;;;;5055134;28;20095;-61
2022/01/19 11:26:14;;;;;;;36.63;23.77;;;4.30;99.90;;;;;;5070339;28;20412;-61
2022/01/19 11:28:44;;;;;;;36.17;22.35;;;4.30;99.90;;;;;;5072458;28;20020;-60
2022/01/19 11:31:25;;;;;;;;;;;4.30;99.90;;;;;;5071407;28;20039;-61
2022/01/19 11:33:52;;;;;;;37.17;22.58;;;4.30;99.90;;;;;;5073854;28;20340;-61
2022/01/19 11:36:22;;;;;;;35.20;23.63;;;4.30;99.90;;;;;;5070052;28;20071;-61
2022/01/19 11:38:51;;;;;;;36.35;23.98;;;4.30;99.90;;;;;;5073516;28;20027;-61
2022/01/19 11:41:16;;;;;;;37.33;24.15;;;4.40;99.90;;;;;;5073651;28;20036;-60
2022/01/19 11:43:51;;;;;;;35.38;22.33;;;4.40;99.90;;;;;;5073437;28;20024;-61
2022/01/19 11:46:28;;;;;;;37.40;24.30;;;4.40;99.90;;;;;;5055948;28;20036;-61
2022/01/19 11:48:53;;;;;;;34.72;22.92;;;4.40;99.90;;;;;;5070280;28;20028;-61
2022/01/19 11:51:30;;;;;;;34.70;23.65;;;4.40;99.90;;;;;;5069507;28;20031;-61
2022/01/19 11:57:28;;;;;;;35.63;22.27;;;4.50;99.90;;;;;;4984071;28;20057;-61
2022/01/19 11:59:53;;;;;;;34.55;23.15;;;4.50;99.90;;;;;;4988258;28;20105;-61
2022/01/19 12:02:24;;;;;;;34.55;22.95;;;4.50;99.90;;;;;;5037985;28;20115;-61
2022/01/19 12:05:17;;;;;;;37.88;23.35;;;4.60;99.90;;;;;;5072085;28;20502;-61
2022/01/19 12:07:55;;;;;;;40.20;23.17;;;4.60;99.90;;;;;;5057910;28;20036;-61
2022/01/19 12:10:38;;;;;;;37.85;22.98;;;4.50;99.90;;;;;;5073299;28;20104;-61
2022/01/19 12:16:47;;;;;;;39.65;23.70;;;4.50;99.90;;;;;;5069984;28;20111;-61
2022/01/19 12:19:15;;;;;;;37.35;24.02;;;4.60;99.90;;;;;;5071082;28;20036;-61
2022/01/19 12:21:45;;;;;;;38.88;24.70;;;4.60;99.90;;;;;;5072945;28;20024;-61
2022/01/19 12:24:39;;;;;;;40.90;25.77;;;4.60;99.90;;;;;;5073189;28;20040;-61
2022/01/19 12:27:15;;;;;;;40.40;24.30;;;4.70;99.90;;;;;;5073402;28;20036;-61
2022/01/19 12:29:42;;;;;;;37.22;24.13;;;4.70;99.90;;;;;;5072849;28;20021;-61
2022/01/19 12:32:27;;;;;;;38.17;23.60;;;4.70;99.90;;;;;;5052639;28;20052;-61
2022/01/19 12:35:16;;;;;;;41.53;26.48;;;4.70;99.90;;;;;;5068430;28;20028;-61
2022/01/19 12:37:54;;;;;;;41.57;26.57;;;4.80;99.90;;;;;;5067330;28;20029;-61
2022/01/19 12:40:24;;;;;;;41.08;24.77;;;4.80;99.90;;;;;;5072984;28;20044;-61
2022/01/19 12:42:54;;;;;;;;;;;4.90;99.90;;;;;;5073562;28;20420;-61
2022/01/19 12:45:22;;;;;;;;;;;4.90;99.90;;;;;;5073464;28;19905;-61
2022/01/19 12:47:55;;;;;;;41.35;26.60;;;4.90;99.90;;;;;;5072314;28;19905;-61
2022/01/19 12:50:21;;;;;;;41.78;27.15;;;4.90;99.90;;;;;;5071838;28;20039;-60
2022/01/19 12:52:54;;;;;;;42.58;27.90;;;4.90;99.90;;;;;;5069007;28;20021;-61
2022/01/19 12:55:21;;;;;;;39.63;26.42;;;4.90;99.90;;;;;;5070500;28;20028;-61
2022/01/19 12:57:47;;;;;;;45.25;27.33;;;4.90;99.90;;;;;;5071302;28;20068;-60
2022/01/19 13:00:24;;;;;;;47.75;30.08;;;5.00;99.90;;;;;;5072067;28;20025;-61
2022/01/19 13:02:50;;;;;;;43.58;27.83;;;5.00;99.90;;;;;;5053625;28;20028;-60
2022/01/19 13:05:18;;;;;;;46.88;29.00;;;5.00;99.90;;;;;;5072569;28;20048;-60
2022/01/19 13:07:53;;;;;;;47.13;27.98;;;5.00;99.90;;;;;;5073004;28;20032;-61
2022/01/19 13:10:41;;;;;;;45.22;27.90;;;5.00;99.90;;;;;;5072687;28;20476;-61
2022/01/19 13:13:11;;;;;;;48.53;29.50;;;5.10;99.90;;;;;;5072368;28;20032;-60
2022/01/19 13:15:49;;;;;;;45.45;29.05;;;5.00;99.90;;;;;;5072130;28;20538;-61
2022/01/19 13:18:28;;;;;;;44.92;28.50;;;5.10;99.90;;;;;;5052795;28;20029;-60
2022/01/19 13:20:55;;;;;;;48.47;29.83;;;5.10;99.90;;;;;;5052557;28;20154;-60
2022/01/19 13:23:21;;;;;;;50.30;30.17;;;5.10;99.90;;;;;;5052522;28;20017;-61
2022/01/19 13:25:59;;;;;;;44.83;29.42;;;5.10;99.90;;;;;;5052194;28;20509;-61
2022/01/19 13:28:27;;;;;;;46.30;29.48;;;5.20;99.90;;;;;;5052459;28;20021;-61
2022/01/19 13:30:57;;;;;;;51.17;30.92;;;5.10;99.90;;;;;;5061844;28;20024;-61
2022/01/19 13:33:24;;;;;;;50.53;31.02;;;5.20;99.90;;;;;;5072626;28;20016;-60
2022/01/19 13:35:59;;;;;;;48.45;31.35;;;5.20;99.90;;;;;;5072563;28;20111;-60
2022/01/19 13:38:26;;;;;;;46.88;30.20;;;5.20;99.90;;;;;;5072238;28;20032;-61
2022/01/19 13:41:01;;;;;;;47.90;29.40;;;5.20;99.90;;;;;;5072078;28;20059;-61
2022/01/19 13:43:26;;;;;;;48.22;30.17;;;5.20;99.90;;;;;;5072448;28;20074;-61
2022/01/19 13:46:01;;;;;;;49.88;29.20;;;5.20;99.90;;;;;;5072298;28;20028;-60
2022/01/19 13:51:02;;;;;;;49.30;30.15;;;5.20;99.90;;;;;;5072536;28;20376;-60
2022/01/19 13:53:34;;;;;;;46.58;31.00;;;5.20;99.90;;;;;;5072244;28;20100;-61
2022/01/19 13:56:02;;;;;;;46.40;29.77;;;5.10;99.90;;;;;;5071976;28;20383;-61
2022/01/19 13:58:40;;;;;;;51.85;33.35;;;5.10;99.90;;;;;;5071105;28;20456;-61
2022/01/19 14:01:12;;;;;;;46.65;30.00;;;5.10;99.90;;;;;;5061507;28;20411;-61
2022/01/19 14:04:08;;;;;;;45.05;29.90;;;5.10;99.90;;;;;;5052061;28;20032;-61
2022/01/19 14:06:33;;;;;;;52.15;31.40;;;5.20;99.90;;;;;;5054123;28;20565;-61
2022/01/19 14:09:20;;;;;;;48.35;30.70;;;5.10;99.90;;;;;;5065504;28;20020;-61
2022/01/19 14:11:57;;;;;;;52.97;32.28;;;5.10;99.90;;;;;;5052093;28;20025;-61
2022/01/19 14:14:26;;;;;;;46.97;29.73;;;5.10;99.90;;;;;;5052055;28;20025;-61
2022/01/19 14:16:55;;;;;;;50.40;29.98;;;5.10;99.90;;;;;;5065422;28;20062;-60
2022/01/19 14:19:23;;;;;;;51.50;31.00;;;5.10;99.90;;;;;;5092313;28;20020;-61
2022/01/19 14:21:59;;;;;;;48.95;30.58;;;5.20;99.90;;;;;;5074774;28;20541;-61
2022/01/19 14:24:26;;;;;;;44.13;29.15;;;5.20;99.90;;;;;;5068354;28;20431;-61
2022/01/19 14:26:54;;;;;;;50.20;31.67;;;5.20;99.90;;;;;;5068748;28;20044;-61
2022/01/19 14:29:20;;;;;;;51.17;31.33;;;5.20;99.90;;;;;;5070343;28;20280;-61
2022/01/19 14:31:52;;;;;;;48.85;31.30;;;5.20;99.90;;;;;;5064754;28;20074;-60